createdAt,value
2019-04-21T00:02:08.598Z,7.50
2019-04-21T00:04:50.728Z,7.40
2019-04-21T00:07:26.479Z,7.40
2019-04-21T00:10:03.906Z,7.40
2019-04-21T00:12:28.677Z,7.30
2019-04-21T00:14:49.426Z,7.30
2019-04-21T00:17:15.378Z,7.30
2019-04-21T00:19:44.260Z,7.30
2019-04-21T00:22:23.212Z,7.30
2019-04-21T00:25:01.054Z,7.30
2019-04-21T00:27:32.426Z,7.30
2019-04-21T00:30:03.400Z,7.20
2019-04-21T00:32:29.313Z,7.20
2019-04-21T00:34:50.996Z,7.20
2019-04-21T00:37:26.710Z,7.20
2019-04-21T00:40:09.238Z,7.20
2019-04-21T00:42:34.544Z,7.20
2019-04-21T00:45:03.498Z,7.10
2019-04-21T00:47:44.666Z,7.10
2019-04-21T00:50:28.158Z,7.00
2019-04-21T00:57:57.137Z,6.90
2019-04-21T01:00:29.022Z,6.80
2019-04-21T01:05:33.577Z,6.70
2019-04-21T01:07:58.024Z,6.70
2019-04-21T01:10:24.504Z,6.70
2019-04-21T01:13:03.995Z,6.60
2019-04-21T01:15:36.921Z,6.50
2019-04-21T01:18:05.094Z,6.60
2019-04-21T01:20:17.276Z,6.60
2019-04-21T01:22:43.190Z,6.60
2019-04-21T01:25:22.703Z,6.50
2019-04-21T01:27:59.040Z,6.60
2019-04-21T01:30:34.504Z,6.60
2019-04-21T01:33:07.953Z,6.50
2019-04-21T01:35:40.279Z,6.50
2019-04-21T01:38:10.951Z,6.40
2019-04-21T01:40:42.838Z,6.40
2019-04-21T01:43:08.634Z,6.30
2019-04-21T01:45:41.637Z,6.20
2019-04-21T01:48:06.066Z,6.20
2019-04-21T01:50:36.388Z,6.20
2019-04-21T01:53:20.529Z,6.10
2019-04-21T01:55:54.407Z,6.20
2019-04-21T01:58:23.054Z,6.20
2019-04-21T02:00:56.766Z,6.10
2019-04-21T02:03:52.842Z,6.10
2019-04-21T02:06:11.371Z,6.00
2019-04-21T02:08:34.072Z,6.00
2019-04-21T02:11:12.318Z,6.00
2019-04-21T02:13:35.407Z,6.10
2019-04-21T02:18:33.676Z,5.90
2019-04-21T02:20:57.094Z,5.90
2019-04-21T02:23:46.007Z,5.90
2019-04-21T02:26:09.531Z,5.90
2019-04-21T02:31:20.474Z,5.80
2019-04-21T02:33:55.915Z,5.80
2019-04-21T02:39:00.621Z,5.70
2019-04-21T02:41:26.517Z,5.60
2019-04-21T02:44:00.659Z,5.60
2019-04-21T02:46:31.329Z,5.70
2019-04-21T02:49:13.403Z,5.70
2019-04-21T02:51:28.197Z,5.70
2019-04-21T02:59:02.714Z,5.40
2019-04-21T03:04:34.369Z,5.40
2019-04-21T03:07:09.374Z,5.40
2019-04-21T03:22:12.839Z,4.90
2019-04-21T03:25:01.241Z,4.80
2019-04-21T03:27:17.234Z,4.60
2019-04-21T03:29:44.726Z,4.50
2019-04-21T03:42:36.679Z,4.40
2019-04-21T03:44:45.283Z,4.40
2019-04-21T03:47:26.867Z,4.30
2019-04-21T03:52:30.256Z,4.40
2019-04-21T04:06:03.444Z,4.40
2019-04-21T04:08:53.922Z,4.30
2019-04-21T04:14:04.493Z,4.20
2019-04-21T04:16:31.279Z,4.10
2019-04-21T04:19:16.029Z,4.00
2019-04-21T04:21:48.023Z,4.00
2019-04-21T04:24:34.268Z,4.00
2019-04-21T04:26:45.382Z,4.00
2019-04-21T04:36:58.465Z,4.20
2019-04-21T04:42:43.293Z,4.30
2019-04-21T04:57:17.999Z,4.10
2019-04-21T05:02:20.535Z,4.10
2019-04-21T05:05:02.629Z,4.20
2019-04-21T05:07:13.899Z,4.20
2019-04-21T05:09:46.588Z,4.30
2019-04-21T05:12:29.531Z,4.30
2019-04-21T05:15:09.699Z,4.40
2019-04-21T05:17:43.546Z,4.50
2019-04-21T05:20:20.197Z,4.60
2019-04-21T05:22:44.905Z,4.70
2019-04-21T05:25:11.006Z,4.80
2019-04-21T05:27:45.283Z,4.90
2019-04-21T05:30:22.093Z,5.00
2019-04-21T05:32:59.936Z,5.10
2019-04-21T05:35:52.033Z,5.30
2019-04-21T05:38:31.511Z,5.50
2019-04-21T05:41:06.303Z,6.40
2019-04-21T05:43:41.740Z,10.00
2019-04-21T05:52:51.399Z,19.10
2019-04-21T05:55:56.934Z,21.00
2019-04-21T05:58:21.005Z,22.40
2019-04-21T06:03:34.282Z,23.70
2019-04-21T06:08:25.131Z,24.70
2019-04-21T06:13:35.113Z,25.70
2019-04-21T06:15:58.009Z,26.10
2019-04-21T06:18:41.351Z,26.30
2019-04-21T06:20:59.501Z,26.50
2019-04-21T06:23:30.496Z,27.20
2019-04-21T06:28:33.648Z,28.40
2019-04-21T06:33:35.613Z,28.70
2019-04-21T06:39:04.725Z,28.90
2019-04-21T06:41:32.579Z,29.60
2019-04-21T06:46:41.078Z,30.00
2019-04-21T06:49:04.892Z,29.70
2019-04-21T06:54:03.438Z,29.20
2019-04-21T06:56:36.525Z,29.00
2019-04-21T06:59:01.316Z,28.50
2019-04-21T07:01:36.800Z,28.30
2019-04-21T07:06:35.630Z,27.50
2019-04-21T07:09:20.984Z,27.20
2019-04-21T07:11:33.673Z,27.30
2019-04-21T07:14:24.379Z,27.50
2019-04-21T07:16:42.897Z,27.00
2019-04-21T07:19:14.617Z,27.10
2019-04-21T07:21:34.440Z,26.80
2019-04-21T07:24:05.283Z,26.90
2019-04-21T07:26:36.856Z,27.30
2019-04-21T07:29:09.067Z,26.80
2019-04-21T07:31:39.795Z,26.70
2019-04-21T07:34:16.082Z,26.40
2019-04-21T07:36:45.017Z,26.70
2019-04-21T07:39:05.953Z,26.80
2019-04-21T07:41:32.927Z,27.00
2019-04-21T07:44:00.268Z,26.70
2019-04-21T07:46:29.054Z,26.40
2019-04-21T07:49:13.526Z,26.00
2019-04-21T07:51:55.157Z,25.30
2019-04-21T07:54:25.119Z,24.10
2019-04-21T07:56:33.220Z,23.50
2019-04-21T07:59:22.875Z,23.10
2019-04-21T08:01:52.002Z,22.90
2019-04-21T08:04:39.295Z,22.60
2019-04-21T08:06:52.044Z,22.80
2019-04-21T08:09:19.804Z,22.90
2019-04-21T08:11:48.753Z,22.80
2019-04-21T08:14:24.272Z,22.90
2019-04-21T08:19:25.838Z,22.70
2019-04-21T08:21:59.840Z,22.80
2019-04-21T08:24:20.050Z,22.70
2019-04-21T08:26:58.669Z,22.30
2019-04-21T08:29:33.201Z,22.40
2019-04-21T08:32:02.909Z,22.40
2019-04-21T08:34:28.468Z,22.30
2019-04-21T08:36:58.865Z,22.10
2019-04-21T08:39:30.251Z,22.10
2019-04-21T08:41:58.764Z,22.50
2019-04-21T08:44:33.640Z,22.40
2019-04-21T08:47:06.080Z,22.30
2019-04-21T08:49:26.511Z,22.60
2019-04-21T08:52:11.294Z,23.00
2019-04-21T08:54:32.305Z,22.90
2019-04-21T08:57:11.638Z,22.90
2019-04-21T08:59:48.542Z,22.90
2019-04-21T09:02:14.472Z,23.10
2019-04-21T09:04:45.839Z,23.00
2019-04-21T09:07:19.415Z,22.70
2019-04-21T09:09:46.784Z,22.60
2019-04-21T09:12:17.785Z,22.60
2019-04-21T09:14:41.775Z,22.70
2019-04-21T09:17:10.799Z,22.80
2019-04-21T09:20:07.577Z,23.20
2019-04-21T09:22:17.823Z,23.20
2019-04-21T09:24:45.618Z,23.30
2019-04-21T09:27:14.318Z,23.50
2019-04-21T09:29:37.910Z,23.50
2019-04-21T09:32:01.930Z,23.60
2019-04-21T09:34:36.492Z,23.70
2019-04-21T09:37:15.428Z,23.70
2019-04-21T09:39:33.207Z,23.60
2019-04-21T09:42:04.415Z,22.90
2019-04-21T09:44:37.218Z,22.80
2019-04-21T09:47:05.084Z,23.10
2019-04-21T09:49:33.890Z,23.30
2019-04-21T09:52:07.965Z,23.00
2019-04-21T09:54:37.054Z,23.00
2019-04-21T09:57:08.856Z,23.30
2019-04-21T09:59:40.091Z,23.50
2019-04-21T10:02:13.393Z,23.70
2019-04-21T10:04:36.007Z,23.60
2019-04-21T10:07:04.774Z,23.80
2019-04-21T10:09:33.495Z,24.00
2019-04-21T10:12:03.106Z,24.10
2019-04-21T10:14:33.015Z,24.20
2019-04-21T10:17:21.787Z,23.40
2019-04-21T10:19:50.779Z,23.40
2019-04-21T10:22:21.000Z,23.70
2019-04-21T10:24:50.084Z,24.00
2019-04-21T10:27:19.131Z,24.30
2019-04-21T10:29:49.070Z,24.30
2019-04-21T10:32:20.150Z,24.10
2019-04-21T10:34:49.429Z,24.20
2019-04-21T10:37:18.887Z,24.20
2019-04-21T10:39:47.641Z,24.00
2019-04-21T10:42:17.381Z,24.20
2019-04-21T10:44:47.118Z,23.90
2019-04-21T10:47:16.616Z,24.10
2019-04-21T10:49:46.521Z,24.50
2019-04-21T10:52:19.847Z,24.20
2019-04-21T10:55:06.903Z,24.10
2019-04-21T10:57:20.336Z,24.50
2019-04-21T10:59:52.441Z,24.90
2019-04-21T11:02:21.188Z,25.10
2019-04-21T11:04:51.109Z,24.30
2019-04-21T11:07:53.109Z,24.30
2019-04-21T11:10:10.041Z,24.80
2019-04-21T11:12:39.747Z,24.50
2019-04-21T11:15:09.392Z,24.50
2019-04-21T11:17:40.627Z,24.80
2019-04-21T11:20:08.971Z,24.60
2019-04-21T11:22:38.906Z,24.40
2019-04-21T11:25:09.153Z,24.30
2019-04-21T11:27:38.134Z,24.40
2019-04-21T11:30:09.538Z,24.50
2019-04-21T11:32:39.038Z,24.70
2019-04-21T11:35:09.431Z,25.00
2019-04-21T11:37:39.833Z,25.50
2019-04-21T11:40:12.530Z,25.90
2019-04-21T11:42:41.902Z,25.20
2019-04-21T11:45:14.690Z,25.00
2019-04-21T11:48:00.981Z,25.30
2019-04-21T11:50:30.916Z,25.70
2019-04-21T11:53:01.059Z,26.20
2019-04-21T11:55:35.256Z,26.10
2019-04-21T11:58:00.347Z,25.80
2019-04-21T12:00:29.484Z,25.70
2019-04-21T12:02:59.503Z,25.90
2019-04-21T12:05:29.672Z,26.10
2019-04-21T12:08:00.169Z,25.80
2019-04-21T12:10:29.308Z,25.30
2019-04-21T12:12:59.244Z,24.90
2019-04-21T12:15:29.172Z,25.30
2019-04-21T12:17:58.136Z,25.80
2019-04-21T12:20:28.518Z,26.20
2019-04-21T12:22:57.489Z,26.30
2019-04-21T12:25:29.187Z,25.70
2019-04-21T12:27:58.216Z,25.90
2019-04-21T12:30:27.314Z,25.90
2019-04-21T12:33:04.307Z,25.90
2019-04-21T12:35:33.579Z,25.70
2019-04-21T12:38:02.794Z,25.30
2019-04-21T12:40:32.552Z,25.50
2019-04-21T12:43:01.107Z,25.30
2019-04-21T12:45:31.639Z,25.80
2019-04-21T12:48:02.054Z,25.80
2019-04-21T12:50:32.057Z,25.70
2019-04-21T12:53:01.127Z,25.90
2019-04-21T12:55:34.107Z,25.90
2019-04-21T12:58:03.495Z,26.00
2019-04-21T13:00:33.366Z,25.50
2019-04-21T13:03:03.573Z,25.70
2019-04-21T13:05:35.683Z,25.60
2019-04-21T13:08:04.751Z,25.70
2019-04-21T13:10:33.988Z,25.70
2019-04-21T13:13:03.840Z,25.70
2019-04-21T13:15:33.557Z,25.90
2019-04-21T13:18:04.671Z,26.00
2019-04-21T13:20:34.119Z,25.80
2019-04-21T13:23:03.915Z,26.00
2019-04-21T13:25:33.882Z,25.90
2019-04-21T13:28:02.945Z,25.80
2019-04-21T13:30:32.658Z,25.90
2019-04-21T13:33:02.936Z,25.90
2019-04-21T13:35:33.177Z,26.20
2019-04-21T13:38:02.645Z,26.10
2019-04-21T13:41:05.305Z,25.80
2019-04-21T13:43:19.017Z,25.60
2019-04-21T13:45:48.098Z,25.50
2019-04-21T13:48:16.902Z,25.50
2019-04-21T13:50:46.927Z,25.20
2019-04-21T13:53:16.692Z,25.40
2019-04-21T13:55:46.689Z,25.40
2019-04-21T13:58:16.813Z,25.50
2019-04-21T14:00:45.837Z,25.40
2019-04-21T14:03:14.671Z,25.40
2019-04-21T14:05:56.233Z,25.70
2019-04-21T14:08:25.348Z,25.90
2019-04-21T14:10:54.260Z,25.90
2019-04-21T14:13:24.616Z,25.90
2019-04-21T14:15:53.888Z,25.70
2019-04-21T14:18:22.819Z,25.70
2019-04-21T14:20:51.541Z,25.40
2019-04-21T14:23:29.942Z,25.30
2019-04-21T14:25:50.482Z,25.20
2019-04-21T14:28:19.897Z,25.10
2019-04-21T14:30:50.354Z,25.00
2019-04-21T14:33:20.452Z,24.90
2019-04-21T14:35:50.615Z,24.90
2019-04-21T14:38:20.622Z,24.80
2019-04-21T14:40:50.349Z,24.80
2019-04-21T14:43:20.455Z,24.90
2019-04-21T14:46:02.996Z,24.90
2019-04-21T14:48:50.873Z,24.70
2019-04-21T14:51:31.616Z,24.70
2019-04-21T14:54:03.646Z,24.60
2019-04-21T14:56:33.467Z,24.70
2019-04-21T14:59:04.300Z,24.70
2019-04-21T15:01:33.739Z,24.70
2019-04-21T15:04:03.815Z,24.50
2019-04-21T15:06:33.714Z,24.40
2019-04-21T15:09:03.057Z,24.50
2019-04-21T15:11:31.969Z,24.30
2019-04-21T15:14:04.384Z,24.10
2019-04-21T15:16:33.502Z,24.20
2019-04-21T15:19:02.503Z,24.30
2019-04-21T15:21:33.419Z,24.40
2019-04-21T15:24:02.452Z,24.30
2019-04-21T15:26:32.400Z,24.00
2019-04-21T15:29:02.595Z,24.10
2019-04-21T15:31:34.489Z,24.10
2019-04-21T15:34:03.188Z,23.80
2019-04-21T15:36:35.009Z,23.70
2019-04-21T15:39:03.616Z,23.80
2019-04-21T15:41:32.466Z,23.80
2019-04-21T15:44:02.646Z,23.80
2019-04-21T15:46:33.893Z,23.80
2019-04-21T15:49:02.691Z,23.70
2019-04-21T15:51:31.674Z,23.60
2019-04-21T15:54:02.641Z,23.40
2019-04-21T15:56:33.075Z,23.40
2019-04-21T15:59:12.647Z,23.40
2019-04-21T16:01:43.156Z,23.30
2019-04-21T16:04:12.644Z,23.20
2019-04-21T16:06:41.659Z,23.00
2019-04-21T16:09:15.032Z,23.10
2019-04-21T16:11:42.093Z,23.10
2019-04-21T16:14:11.106Z,23.00
2019-04-21T16:16:41.046Z,23.00
2019-04-21T16:19:10.249Z,22.90
2019-04-21T16:21:42.205Z,23.00
2019-04-21T16:24:09.167Z,23.00
2019-04-21T16:26:38.394Z,22.90
2019-04-21T16:29:07.465Z,22.80
2019-04-21T16:31:36.413Z,22.80
2019-04-21T16:34:05.514Z,22.70
2019-04-21T16:36:34.228Z,22.70
2019-04-21T16:39:03.395Z,22.60
2019-04-21T16:41:32.187Z,22.40
2019-04-21T16:44:00.991Z,22.30
2019-04-21T16:46:29.740Z,22.10
2019-04-21T16:48:58.232Z,22.00
2019-04-21T16:51:28.363Z,21.90
2019-04-21T16:53:59.856Z,21.70
2019-04-21T16:56:31.122Z,21.70
2019-04-21T16:59:02.817Z,21.70
2019-04-21T17:01:32.463Z,21.70
2019-04-21T17:04:02.243Z,21.60
2019-04-21T17:06:31.267Z,21.50
2019-04-21T17:09:00.951Z,21.40
2019-04-21T17:11:34.680Z,21.30
2019-04-21T17:14:00.623Z,21.20
2019-04-21T17:16:56.086Z,21.10
2019-04-21T17:19:11.344Z,20.90
2019-04-21T17:21:31.960Z,20.80
2019-04-21T17:24:02.147Z,20.70
2019-04-21T17:26:32.884Z,20.60
2019-04-21T17:29:02.639Z,20.60
2019-04-21T17:31:31.634Z,20.50
2019-04-21T17:34:09.588Z,20.50
2019-04-21T17:36:32.739Z,20.30
2019-04-21T17:39:02.222Z,20.20
2019-04-21T17:41:41.214Z,20.10
2019-04-21T17:44:02.516Z,20.00
2019-04-21T17:46:40.783Z,19.90
2019-04-21T17:49:03.164Z,19.80
2019-04-21T17:51:49.598Z,19.70
2019-04-21T17:54:30.040Z,19.60
2019-04-21T17:57:11.238Z,19.50
2019-04-21T17:59:52.298Z,19.40
2019-04-21T18:02:12.004Z,19.20
2019-04-21T18:04:56.035Z,19.20
2019-04-21T18:07:26.383Z,19.10
2019-04-21T18:10:01.656Z,19.00
2019-04-21T18:12:41.405Z,18.70
2019-04-21T18:35:11.601Z,17.30
2019-04-21T18:50:55.385Z,15.60
2019-04-21T18:53:40.117Z,15.40
2019-04-21T18:55:59.425Z,15.20
2019-04-21T18:58:24.318Z,15.00
2019-04-21T19:08:51.245Z,14.40
2019-04-21T19:11:20.910Z,14.20
2019-04-21T19:17:13.697Z,14.00
2019-04-21T19:19:41.137Z,13.90
2019-04-21T19:21:57.701Z,13.70
2019-04-21T19:24:32.074Z,13.60
2019-04-21T19:29:52.123Z,13.30
2019-04-21T19:32:05.049Z,13.30
2019-04-21T19:34:18.678Z,13.20
2019-04-21T19:36:51.209Z,13.10
2019-04-21T19:39:32.733Z,13.00
2019-04-21T19:41:59.623Z,12.90
2019-04-21T19:44:35.168Z,12.80
2019-04-21T19:47:03.638Z,12.70
2019-04-21T19:49:38.288Z,12.60
2019-04-21T19:51:56.529Z,12.50
2019-04-21T19:54:25.134Z,12.50
2019-04-21T19:56:48.991Z,12.40
2019-04-21T19:59:24.954Z,12.30
2019-04-21T20:01:51.281Z,12.20
2019-04-21T20:04:20.025Z,12.10
2019-04-21T20:07:01.033Z,12.10
2019-04-21T20:09:37.951Z,12.00
2019-04-21T20:12:05.121Z,11.80
2019-04-21T20:17:06.376Z,11.80
2019-04-21T20:19:22.918Z,11.50
2019-04-21T20:21:53.376Z,11.20
2019-04-21T20:24:26.571Z,10.90
2019-04-21T20:27:03.522Z,10.80
2019-04-21T20:29:44.563Z,10.80
2019-04-21T20:32:20.178Z,10.80
2019-04-21T20:34:48.984Z,10.80
2019-04-21T20:37:15.021Z,10.80
2019-04-21T20:39:28.317Z,10.70
2019-04-21T20:42:12.353Z,10.70
2019-04-21T20:44:42.292Z,10.60
2019-04-21T20:47:07.422Z,10.50
2019-04-21T20:49:38.546Z,10.50
2019-04-21T20:52:17.331Z,10.40
2019-04-21T20:54:45.227Z,10.40
2019-04-21T20:57:18.866Z,10.40
2019-04-21T20:59:44.019Z,10.30
2019-04-21T21:02:19.249Z,10.30
2019-04-21T21:04:43.459Z,10.30
2019-04-21T21:07:31.715Z,10.20
2019-04-21T21:09:57.725Z,10.20
2019-04-21T21:12:28.606Z,10.10
2019-04-21T21:14:47.468Z,10.00
2019-04-21T21:17:34.047Z,9.90
2019-04-21T21:19:55.759Z,9.80
2019-04-21T21:22:14.694Z,9.70
2019-04-21T21:24:50.545Z,9.70
2019-04-21T21:27:19.631Z,9.70
2019-04-21T21:29:51.580Z,9.70
2019-04-21T21:32:27.343Z,9.70
2019-04-21T21:35:01.379Z,9.70
2019-04-21T21:37:35.111Z,9.70
2019-04-21T21:40:06.087Z,9.60
2019-04-21T21:42:11.850Z,9.60
2019-04-21T21:44:50.437Z,9.50
2019-04-21T21:47:24.149Z,9.40
2019-04-21T21:49:55.387Z,9.30
2019-04-21T21:52:22.521Z,9.30
2019-04-21T21:54:41.769Z,9.30
2019-04-21T21:57:12.441Z,9.20
2019-04-21T21:59:42.184Z,9.10
2019-04-21T22:02:17.227Z,9.10
2019-04-21T22:04:51.068Z,9.00
2019-04-21T22:07:17.131Z,9.00
2019-04-21T22:09:44.311Z,8.90
2019-04-21T22:12:14.167Z,8.90
2019-04-21T22:14:48.184Z,9.00
2019-04-21T22:17:28.990Z,8.90
2019-04-21T22:20:08.544Z,8.90
2019-04-21T22:22:26.543Z,8.80
2019-04-21T22:24:56.690Z,8.70
2019-04-21T22:27:15.304Z,8.60
2019-04-21T22:29:48.219Z,8.60
2019-04-21T22:32:19.257Z,8.50
2019-04-21T22:34:51.956Z,8.50
2019-04-21T22:37:31.775Z,8.40
2019-04-21T22:40:03.610Z,8.30
2019-04-21T22:42:22.408Z,8.40
2019-04-21T22:44:48.097Z,8.30
2019-04-21T22:47:23.790Z,8.40
2019-04-21T22:49:48.642Z,8.40
2019-04-21T22:52:20.992Z,8.50
2019-04-21T22:54:49.300Z,8.50
2019-04-21T22:57:22.973Z,8.30
2019-04-21T22:59:53.870Z,8.30
2019-04-21T23:02:25.935Z,8.30
2019-04-21T23:04:54.775Z,8.20
2019-04-21T23:07:24.186Z,8.20
2019-04-21T23:09:51.465Z,8.10
2019-04-21T23:12:27.678Z,8.10
2019-04-21T23:14:58.551Z,8.10
2019-04-21T23:17:38.925Z,8.00
2019-04-21T23:20:13.276Z,8.00
2019-04-21T23:22:51.369Z,7.90
2019-04-21T23:25:13.665Z,7.90
2019-04-21T23:27:38.776Z,7.90
2019-04-21T23:30:20.233Z,7.90
2019-04-21T23:32:36.061Z,7.80
2019-04-21T23:34:56.122Z,7.80
2019-04-21T23:37:27.169Z,7.80
2019-04-21T23:40:05.717Z,7.80
2019-04-21T23:42:31.762Z,7.80
2019-04-21T23:44:59.666Z,7.80
2019-04-21T23:47:39.521Z,7.80
2019-04-21T23:50:05.401Z,7.70
2019-04-21T23:52:28.073Z,7.60
2019-04-21T23:54:56.903Z,7.50
2019-04-21T23:57:33.600Z,7.40
